AirNav   Bose ProFlight Series 2 Headset
 
 936 users online  

K62 Gene Snyder Airport
Falmouth, Kentucky, USA

GOING TO FALMOUTH?


FAA INFORMATION EFFECTIVE 27 FEBRUARY 2020

Location

FAA Identifier: K62
Lat/Long: 38-42-14.7000N 084-23-30.6000W
38-42.245000N 084-23.510000W
38.7040833,-84.3918333
(estimated)
Elevation: 899.4 ft. / 274 m (estimated)
Variation: 06W (2015)
From city: 4 miles NW of FALMOUTH, KY
Time zone: UTC -5 (UTC -4 during Daylight Saving Time)
Zip code: 41040

Airport Operations

Airport use: Open to the public
Activation date: 10/1984
Control tower: no
ARTCC: INDIANAPOLIS CENTER
FSS: LOUISVILLE FLIGHT SERVICE STATION
NOTAMs facility: LOU (NOTAM-D service available)
Attendance: UNATNDD
Wind indicator: lighted
Segmented circle: yes
Lights: ACTVT PAPI RWY 21; MIRL RWY 03/21 - CTAF.
Beacon: white-green (lighted land airport)
Operates sunset to sunrise.

Airport Communications

CTAF/UNICOM: 122.7
WX AWOS-3: 123.825 (859-654-1345)
CINCINNATI APPROACH: 121.0
CINCINNATI DEPARTURE: 121.0

Nearby radio navigation aids

VOR radial/distance  VOR name  Freq  Var
FLMr315/5.0FALMOUTH VOR/DME117.0004W
CVGr146/23.7CINCINNATI VORTAC117.3004W
FFTr041/(39.6)FRANKFORT VOR109.4003W

 
NDB name  Hdg/Dist  Freq  Var  ID
SPORTYS204/23.824504WPWF .--. .-- ..-.
CINCINNATI189/27.433504WLUK .-.. ..- -.-
WEST UNION261/39.835904WAMT .- -- -

Airport Services

Fuel available: 100LL
Parking: tiedowns
Bottled oxygen: NONE
Bulk oxygen: NONE

Runway Information

Runway 3/21

Dimensions: 3994 x 75 ft. / 1217 x 23 m
Surface: asphalt, in fair condition
Weight bearing capacity: 
Single wheel: 12.5
Runway edge lights: medium intensity
RUNWAY 3  RUNWAY 21
Latitude: 38-41.947497N38-42.541563N
Longitude: 084-23.689598W084-23.328748W
Elevation: 899.2 ft.884.7 ft.
Traffic pattern: leftleft
Runway heading: 031 magnetic, 025 true211 magnetic, 205 true
Displaced threshold: 100 ft.no
Declared distances: TORA:3994 TODA:3994 ASDA:3994 LDA:3894TORA:3994 TODA:3994 ASDA:3894 LDA:3894
Markings: nonprecision, in fair conditionnonprecision, in fair condition
Visual slope indicator: 4-light PAPI on left (3.50 degrees glide path)
Touchdown point: yes, no lightsyes, no lights
Obstructions: 49 ft. trees, 1120 ft. from runway, 130 ft. left of centerline, 18:1 slope to clear
20:1 SLOPE TO DSPLCD THR.
16 ft. trees, 360 ft. from runway, 240 ft. left of centerline, 10:1 slope to clear
+6 TREES AT RWY END 126 FT R OF CNTRLN.

Airport Ownership and Management from official FAA records

Ownership: Publicly-owned
Owner: DAN BELL, ARPT BOARD CHAIRMAN
400 GENE SNYDER AIRPORT DRIVE
FALMOUTH, KY 41040
Phone 859-654-1200
Manager: DAN BELL
400 GENE SNYDER AIRPORT DRIVE
FALMOUTH, KY 41040
Phone 859-654-1200

Airport Operational Statistics

Aircraft based on the field: 21
Single engine airplanes: 20
Multi engine airplanes: 1
    
Aircraft operations: avg 92/week *
55% transient general aviation
38% local general aviation
4% air taxi
3% military
* for 12-month period ending 25 June 2019

Additional Remarks

FOR CD CTC CINCINNATI APCH AT 859-372-6440

Instrument Procedures

NOTE: All procedures below are presented as PDF files. If you need a reader for these files, you should download the free Adobe Reader.

NOT FOR NAVIGATION. Please procure official charts for flight.
FAA instrument procedures published for use from 27 February 2020 at 0901Z to 26 March 2020 at 0900Z.

 
STARs - Standard Terminal Arrivals
BRUSH THREE   2 pages: [1] [2] (298KB)
CINCE NINE   download (247KB)
HARDU FOUR   2 pages: [1] [2] (312KB)
HEDEE FOUR   2 pages: [1] [2] (244KB)
SHELBYVILLE SIX   2 pages: [1] [2] (352KB)
 
IAPs - Instrument Approach Procedures
RNAV (GPS) RWY 21 **CHANGED**   download (190KB)
VOR-A **CHANGED**   download (136KB)
NOTE: Special Take-Off Minimums/Departure Procedures apply   download (126KB)

Other nearby airports with instrument procedures:

0I8 - Cynthiana-Harrison County Airport (21 nm S)
KLUK - Cincinnati Municipal Airport-Lunken Field (24 nm N)
I69 - Clermont County Airport (24 nm N)
KCVG - Cincinnati/Northern Kentucky International Airport (24 nm NW)
KGEO - Brown County Airport (26 nm NE)
 
Loc | Ops | Rwys | IFR | FBO | Links
Com | Nav | Svcs | Stats | Notes
Area around K62 (Gene Snyder Airport)
 
Road maps at: MapQuest Bing Google
 
Aerial photo
WARNING: Photo may not be current or correct
Aerial photo of K62 (Gene Snyder Airport)
Photo courtesy of Charlie Pyles, airpixphoto.com
Photo taken 16-Oct-2010
looking northeast.

Do you have a better or more recent aerial photo of Gene Snyder Airport that you would like to share? If so, please send us your photo.

 
Sectional chart

 
Airport distance calculator
Flying to Gene Snyder Airport? Find the distance to fly.

From to K62

Sunrise and sunset
Times for 27-Feb-2020
 Local
(UTC-5)
 Zulu
(UTC)
Morning civil twilight06:4711:47
Sunrise07:1412:14
Sunset18:2723:27
Evening civil twilight18:5423:54

Current date and time
Zulu (UTC)  28-Feb-2020 03:53:42
Local (UTC-5)  27-Feb-2020 22:53:42
 
METAR
KLUK 
24nm N 
280253Z 22007KT 10SM BKN060 OVC080 01/M06 A3007 RMK AO2 SLP188 T00111056 56007
KI69 
24nm N 
280335Z AUTO 23011KT 10SM SCT027 SCT048 OVC075 00/M06 A3005 RMK AO2 T00041058
KCVG 
24nm NW 
280252Z 23008KT 10SM OVC070 01/M07 A3004 RMK AO2 SLP180 T00061067 56006
K27K 
28nm S 
280335Z AUTO 22004KT 10SM SCT055 OVC075 M01/M06 A3009 RMK AO1
KFGX 
32nm E 
280335Z AUTO 29008KT 230V350 10SM OVC080 M01/M06 A3009 RMK AO2 T10081060
KI67 
38nm NW 
280335Z AUTO 22009KT 10SM SCT047 BKN075 OVC080 01/M05 A3004 RMK AO1
KFFT 
39nm SW 
280253Z AUTO 22004KT 10SM OVC080 M01/M06 A3009 RMK AO2 SLP197 T10111061 56003
KHAO 
40nm N 
280253Z AUTO 24005KT 10SM SCT042 BKN050 OVC075 01/M05 A3005 RMK AO2 SNB35E45 SLP183 P0000 60000 T00111050 58006
KLEX 
41nm S 
280254Z 21007KT 10SM BKN085 M02/M07 A3010 RMK AO2 SLP202 T10171072 58004
KIOB 
43nm SE 
280335Z AUTO 24007KT 10SM OVC085 00/M06 A3011 RMK AO2
TAF
KLUK 
24nm N 
271744Z 2718/2818 28015G22KT P6SM VCSH OVC035 FM280300 27010KT P6SM -SN OVC035 TEMPO 2804/2808 2SM -SN OVC022 FM281000 28007KT P6SM SCT025 OVC080 FM281700 28010G18KT P6SM VCSH BKN040
KCVG 
24nm NW 
271744Z 2718/2824 28015G22KT P6SM VCSH OVC035 FM280300 27010KT P6SM -SN OVC035 TEMPO 2804/2808 2SM -SN OVC018 FM281000 29009KT P6SM SCT025 OVC080 FM281700 29012G20KT P6SM VCSH BKN040
NOTAMs
Click for the latest NOTAMs
NOTAMs are issued by the DoD/FAA and will open in a separate window not controlled by AirNav.

 

 
 

Would you like to see your business listed on this page?

 If your business provides an interesting product or service to pilots, flight crews, aircraft, or users of the Gene Snyder Airport, you should consider listing it here.  To start the listing process, click on the button below
 
Add a business
 

Other Pages about Gene Snyder Airport

Update a link
 
Copyright © AirNav, LLC. All rights reserved. Privacy Policy  Contact